Time;durP1;ratioP1;P1;durP2;ratioP2;P2;SDS_P1;SDS_P2;PMS_P1;PMS_P2;Temp;Humidity;BMP_temperature;BMP_pressure;BME280_temperature;BME280_humidity;BME280_pressure;Samples;Min_cycle;Max_cycle;Signal;HPM_P1;HPM_P2
2022/03/13 12:24:49;;;;;;;24.17;14.73;;;18.10;93.20;;;;;;5109845;27;20327;-60
2022/03/13 12:27:14;;;;;;;30.48;14.63;;;18.00;94.20;;;;;;5110276;28;20040;-64
2022/03/13 12:29:40;;;;;;;24.90;14.65;;;18.40;94.50;;;;;;5108065;28;20112;-57
2022/03/13 12:32:13;;;;;;;26.33;14.98;;;18.70;93.80;;;;;;5088959;28;20020;-62
2022/03/13 12:34:41;;;;;;;24.45;13.50;;;18.90;93.60;;;;;;5116198;28;20045;-60
2022/03/13 12:37:09;;;;;;;24.25;14.60;;;19.00;93.60;;;;;;5113271;28;20375;-59
2022/03/13 12:39:46;;;;;;;22.95;13.70;;;19.00;94.00;;;;;;5116623;28;20020;-61
2022/03/13 12:42:12;;;;;;;30.55;14.43;;;19.20;94.60;;;;;;5091349;28;20033;-61
2022/03/13 12:44:37;;;;;;;24.98;14.27;;;19.00;93.00;;;;;;5110314;28;20028;-63
2022/03/13 12:47:03;;;;;;;24.52;14.32;;;19.00;93.00;;;;;;5110097;28;20036;-60
2022/03/13 12:49:34;;;;;;;22.65;14.13;;;19.10;92.90;;;;;;5112414;28;20042;-62
2022/03/13 12:52:00;;;;;;;22.23;12.25;;;19.10;93.50;;;;;;5112884;28;20491;-58
2022/03/13 12:54:30;;;;;;;25.70;14.05;;;19.20;93.00;;;;;;5106754;28;20031;-63
2022/03/13 12:57:08;;;;;;;27.83;14.98;;;19.40;92.50;;;;;;5102794;28;20024;-54
2022/03/13 12:59:33;;;;;;;23.00;14.05;;;19.30;92.30;;;;;;5106287;28;20024;-60
2022/03/13 13:02:18;;;;;;;28.40;13.68;;;19.20;92.80;;;;;;5105556;28;20040;-59
2022/03/13 13:04:51;;;;;;;26.00;13.30;;;19.00;92.70;;;;;;5108494;27;20494;-58
2022/03/13 13:07:18;;;;;;;19.48;11.32;;;19.20;93.20;;;;;;5111053;28;20027;-62
2022/03/13 13:09:46;;;;;;;23.48;13.13;;;19.40;93.10;;;;;;5116622;28;20043;-61
2022/03/13 13:12:15;;;;;;;21.77;13.27;;;19.70;93.00;;;;;;5108953;28;20085;-58
2022/03/13 13:14:41;;;;;;;23.55;14.43;;;19.80;91.80;;;;;;5108237;28;20020;-59
2022/03/13 13:17:15;;;;;;;25.17;15.20;;;19.80;91.70;;;;;;5106350;28;20079;-59
2022/03/13 13:19:42;;;;;;;;;;;19.90;90.50;;;;;;5111863;28;20036;-60
2022/03/13 13:22:09;;;;;;;27.08;14.18;;;20.00;91.00;;;;;;5121394;28;19915;-59
2022/03/13 13:24:46;;;;;;;22.70;12.98;;;19.30;91.30;;;;;;5106806;28;20019;-60
2022/03/13 13:27:36;;;;;;;17.50;10.10;;;19.00;92.90;;;;;;5106917;28;21866;-58
2022/03/13 13:30:17;;;;;;;16.88;10.45;;;18.80;94.30;;;;;;5101284;28;20024;-62
2022/03/13 13:32:54;;;;;;;17.40;10.77;;;18.80;93.60;;;;;;5109504;28;20389;-62
2022/03/13 13:35:29;;;;;;;17.77;10.60;;;18.70;94.30;;;;;;5091726;28;20418;-60
2022/03/13 13:37:58;;;;;;;21.00;10.93;;;18.70;94.70;;;;;;5090009;28;20077;-61
2022/03/13 13:40:26;;;;;;;19.92;11.82;;;18.70;94.40;;;;;;5096033;28;20054;-60
2022/03/13 13:42:56;;;;;;;20.38;10.98;;;18.60;94.00;;;;;;5092765;28;20024;-61
2022/03/13 13:45:21;;;;;;;28.02;11.70;;;18.80;94.50;;;;;;5094828;28;20089;-60
2022/03/13 13:47:47;;;;;;;20.13;11.90;;;18.70;94.30;;;;;;5091125;28;20024;-59
2022/03/13 13:50:18;;;;;;;22.15;12.20;;;19.00;94.00;;;;;;5091055;28;20024;-62
2022/03/13 13:52:57;;;;;;;25.25;11.73;;;19.10;93.30;;;;;;5094611;28;20919;-59
2022/03/13 13:55:23;;;;;;;19.02;10.55;;;18.90;92.60;;;;;;5090861;28;20445;-63
2022/03/13 13:58:34;;;;;;;19.58;11.90;;;18.70;93.70;;;;;;5090666;28;20051;-62
2022/03/13 14:01:35;;;;;;;20.17;12.18;;;18.20;94.00;;;;;;5102588;28;20055;-63
2022/03/13 14:04:02;;;;;;;19.38;10.90;;;17.90;94.00;;;;;;5097998;28;20394;-61
2022/03/13 14:06:34;;;;;;;19.33;10.85;;;18.30;94.30;;;;;;5100530;28;20016;-60
2022/03/13 14:09:01;;;;;;;19.38;10.98;;;18.80;94.20;;;;;;5091857;28;20032;-61
2022/03/13 14:11:27;;;;;;;19.15;10.70;;;19.10;93.30;;;;;;5101457;28;20012;-58
2022/03/13 14:13:52;;;;;;;18.25;10.50;;;19.20;93.40;;;;;;5094478;28;20504;-56
2022/03/13 14:16:19;;;;;;;17.80;10.45;;;19.10;93.00;;;;;;5102524;28;20498;-59
2022/03/13 14:18:46;;;;;;;17.95;10.23;;;19.00;93.30;;;;;;5096981;28;20034;-60
2022/03/13 14:21:13;;;;;;;21.10;10.25;;;18.80;93.30;;;;;;5099222;28;20035;-61
2022/03/13 14:23:39;;;;;;;18.23;10.85;;;18.60;93.50;;;;;;5101477;28;20036;-58
2022/03/13 14:27:09;;;;;;;19.17;10.13;;;18.20;93.40;;;;;;5091875;27;21025;-60
2022/03/13 14:29:35;;;;;;;21.20;10.20;;;18.00;93.90;;;;;;5075348;28;20028;-61
2022/03/13 14:32:00;;;;;;;15.80;10.00;;;17.90;94.30;;;;;;5072213;28;20031;-61
2022/03/13 14:34:26;;;;;;;17.13;11.05;;;17.90;94.00;;;;;;5075857;28;20131;-59
2022/03/13 14:36:58;;;;;;;16.08;9.48;;;17.70;93.80;;;;;;5064758;28;20044;-61
2022/03/13 14:39:23;;;;;;;14.73;9.73;;;17.70;94.20;;;;;;5056935;28;20021;-60
2022/03/13 14:41:49;;;;;;;12.73;8.90;;;17.60;94.50;;;;;;5070337;28;20486;-62
2022/03/13 14:44:15;;;;;;;16.27;9.45;;;17.50;94.70;;;;;;5069329;28;20040;-60
2022/03/13 14:46:40;;;;;;;16.08;8.98;;;17.40;94.20;;;;;;5066075;28;20435;-64
2022/03/13 14:49:06;;;;;;;20.88;10.05;;;17.40;94.90;;;;;;5066225;28;20025;-62
2022/03/13 14:51:32;;;;;;;12.57;8.15;;;17.40;94.30;;;;;;5065641;28;20037;-62
2022/03/13 14:53:58;;;;;;;16.58;9.38;;;17.50;95.00;;;;;;5065645;28;20486;-62
2022/03/13 14:56:24;;;;;;;14.75;9.20;;;17.50;94.60;;;;;;5065736;28;20089;-62
2022/03/13 14:58:50;;;;;;;12.35;8.48;;;17.50;94.10;;;;;;5065578;28;20024;-61
2022/03/13 15:01:15;;;;;;;14.98;9.13;;;17.50;94.90;;;;;;5065208;28;20021;-61
2022/03/13 15:03:41;;;;;;;18.73;9.88;;;17.50;94.30;;;;;;5066157;28;20103;-63
2022/03/13 15:06:06;;;;;;;16.02;8.95;;;17.40;94.20;;;;;;5065776;28;20040;-61
2022/03/13 15:08:35;;;;;;;16.25;9.45;;;17.50;94.20;;;;;;5065744;28;20024;-59
2022/03/13 15:11:03;;;;;;;15.70;8.43;;;17.50;95.10;;;;;;5066206;28;20057;-60
2022/03/13 15:13:29;;;;;;;12.25;8.10;;;17.50;94.30;;;;;;5064396;28;20389;-59
2022/03/13 15:15:55;;;;;;;12.60;8.30;;;17.60;94.70;;;;;;5066155;28;20033;-62
2022/03/13 15:18:21;;;;;;;14.77;9.07;;;17.50;94.50;;;;;;5065957;28;20021;-59
2022/03/13 15:20:47;;;;;;;13.27;8.70;;;17.50;94.90;;;;;;5065267;28;20032;-58
2022/03/13 15:23:12;;;;;;;15.40;9.45;;;17.40;93.90;;;;;;5065943;28;20086;-64
2022/03/13 15:25:38;;;;;;;16.45;10.50;;;17.40;94.40;;;;;;5064639;28;20043;-58
2022/03/13 15:28:04;;;;;;;16.10;10.05;;;17.40;94.30;;;;;;5064881;28;20104;-62
2022/03/13 15:30:32;;;;;;;19.25;9.20;;;17.40;94.40;;;;;;5064293;28;20481;-59
2022/03/13 15:33:00;;;;;;;14.27;9.05;;;17.30;94.50;;;;;;5064644;28;20506;-62
2022/03/13 15:35:25;;;;;;;14.07;8.95;;;17.30;94.70;;;;;;5065496;28;20051;-61
2022/03/13 15:37:51;;;;;;;15.90;9.93;;;17.20;94.80;;;;;;5055054;28;20025;-60
2022/03/13 15:40:18;;;;;;;15.93;9.07;;;17.20;94.20;;;;;;5052419;28;20395;-62
2022/03/13 15:42:44;;;;;;;16.88;9.88;;;17.10;94.40;;;;;;5051562;28;20509;-63
2022/03/13 15:45:10;;;;;;;18.05;10.35;;;17.00;94.10;;;;;;5051635;28;20064;-60
2022/03/13 15:47:36;;;;;;;16.70;9.82;;;17.00;94.10;;;;;;5052164;28;20104;-59
2022/03/13 15:50:03;;;;;;;20.48;10.77;;;17.00;94.30;;;;;;5051304;28;20463;-60
2022/03/13 15:52:29;;;;;;;16.40;10.52;;;16.90;93.60;;;;;;5051968;28;20052;-61
2022/03/13 15:54:59;;;;;;;21.15;11.13;;;16.90;94.20;;;;;;5066353;22;20091;-57
2022/03/13 15:57:24;;;;;;;18.85;11.05;;;16.90;95.00;;;;;;5046388;28;20032;-56
2022/03/13 15:59:54;;;;;;;20.50;10.25;;;16.80;94.90;;;;;;5048838;28;20391;-58
2022/03/13 16:02:24;;;;;;;24.38;10.40;;;16.80;94.10;;;;;;5047402;28;20064;-59
2022/03/13 16:04:50;;;;;;;17.25;10.32;;;16.80;94.80;;;;;;5048093;28;20398;-55
2022/03/13 16:07:16;;;;;;;15.35;9.98;;;16.70;94.80;;;;;;5046955;28;20104;-58
2022/03/13 16:09:41;;;;;;;17.92;10.52;;;16.70;94.60;;;;;;5049890;28;20048;-59
2022/03/13 16:12:12;;;;;;;16.77;10.57;;;16.60;94.30;;;;;;5048794;28;20056;-58
2022/03/13 16:14:39;;;;;;;20.77;10.65;;;16.60;94.80;;;;;;5045242;28;20060;-59
2022/03/13 16:17:04;;;;;;;16.90;10.40;;;16.50;94.40;;;;;;5046098;28;20384;-59
2022/03/13 16:19:31;;;;;;;17.30;9.85;;;16.50;94.70;;;;;;5049397;28;20061;-59
2022/03/13 16:21:57;;;;;;;19.17;10.45;;;16.40;94.90;;;;;;5043758;28;20514;-59
2022/03/13 16:24:23;;;;;;;18.55;10.77;;;16.40;94.70;;;;;;5045648;28;20478;-58
2022/03/13 16:26:50;;;;;;;20.80;10.63;;;16.30;94.40;;;;;;5047389;28;20020;-59
2022/03/13 16:29:16;;;;;;;18.65;10.07;;;16.20;94.90;;;;;;5042128;28;20025;-58
2022/03/13 16:31:41;;;;;;;19.05;11.07;;;16.20;94.80;;;;;;5042217;28;20091;-59
2022/03/13 16:34:07;;;;;;;17.25;10.05;;;16.20;94.90;;;;;;5046427;28;20083;-60
2022/03/13 16:36:32;;;;;;;16.67;9.93;;;16.10;94.70;;;;;;5048158;28;20028;-57
2022/03/13 16:38:58;;;;;;;16.75;9.70;;;16.00;95.20;;;;;;5049774;28;20037;-57
2022/03/13 16:41:24;;;;;;;18.85;10.93;;;16.10;95.30;;;;;;5045484;28;20022;-57
2022/03/13 16:43:49;;;;;;;19.25;10.30;;;16.00;94.80;;;;;;5046371;28;20487;-58
2022/03/13 16:46:15;;;;;;;18.77;11.05;;;15.90;94.80;;;;;;5048562;28;20100;-58
2022/03/13 16:48:41;;;;;;;18.67;10.85;;;15.90;95.50;;;;;;5044650;28;20108;-55
2022/03/13 16:51:06;;;;;;;23.48;10.95;;;15.90;95.10;;;;;;5048535;28;20082;-59
2022/03/13 16:53:32;;;;;;;17.27;10.85;;;15.70;94.90;;;;;;5043036;28;20025;-58
2022/03/13 16:55:58;;;;;;;17.92;10.05;;;15.70;94.90;;;;;;5048714;28;20032;-56
2022/03/13 16:58:24;;;;;;;16.42;9.80;;;15.60;94.90;;;;;;5046056;28;20033;-59
2022/03/13 17:00:53;;;;;;;15.50;10.02;;;15.60;95.00;;;;;;5044817;28;20021;-60
2022/03/13 17:03:19;;;;;;;17.45;10.15;;;15.60;95.20;;;;;;5042130;28;20024;-57
2022/03/13 17:05:44;;;;;;;18.45;11.02;;;15.60;94.90;;;;;;5045709;28;20037;-59
2022/03/13 17:08:10;;;;;;;17.33;10.25;;;15.60;95.00;;;;;;5049408;28;20035;-58
2022/03/13 17:10:35;;;;;;;19.63;11.57;;;15.60;95.30;;;;;;5050250;28;20023;-57
2022/03/13 17:13:01;;;;;;;20.73;10.48;;;15.50;95.50;;;;;;5057039;28;20104;-59
2022/03/13 17:15:26;;;;;;;18.88;11.43;;;15.50;95.90;;;;;;5047729;28;20029;-57
2022/03/13 17:17:55;;;;;;;20.80;11.10;;;15.40;96.10;;;;;;5050484;28;20552;-57
2022/03/13 17:20:23;;;;;;;13.02;7.20;;;15.40;97.20;;;;;;5049758;28;20862;-57
2022/03/13 17:22:49;;;;;;;15.82;8.15;;;15.40;97.20;;;;;;5040861;28;20029;-59
2022/03/13 17:25:15;;;;;;;10.73;6.60;;;15.30;97.60;;;;;;5029753;28;20044;-60
2022/03/13 17:27:41;;;;;;;12.98;6.53;;;15.30;98.00;;;;;;5043339;28;20029;-58
2022/03/13 17:30:07;;;;;;;14.27;6.85;;;15.30;98.50;;;;;;5048794;28;20029;-56
2022/03/13 17:32:34;;;;;;;12.02;6.50;;;15.20;98.70;;;;;;5050505;28;20394;-60
2022/03/13 17:34:59;;;;;;;11.75;6.40;;;15.10;98.90;;;;;;5049233;28;20487;-59
2022/03/13 17:37:25;;;;;;;10.43;6.05;;;15.10;99.00;;;;;;5049098;28;20040;-59
2022/03/13 17:39:51;;;;;;;10.77;5.32;;;15.00;99.50;;;;;;5048693;28;20454;-59
2022/03/13 17:42:17;;;;;;;9.60;4.50;;;14.90;99.80;;;;;;5047856;28;20013;-59
2022/03/13 17:44:42;;;;;;;11.95;4.50;;;14.90;99.90;;;;;;5043440;28;21625;-59
2022/03/13 17:47:08;;;;;;;10.13;3.90;;;14.90;99.90;;;;;;5047801;28;20363;-60
2022/03/13 17:49:33;;;;;;;6.40;3.80;;;14.90;99.90;;;;;;5046347;28;20103;-60
2022/03/13 17:51:59;;;;;;;5.20;3.08;;;14.90;99.90;;;;;;5046689;28;20024;-58
2022/03/13 17:54:24;;;;;;;5.72;2.58;;;14.90;99.90;;;;;;5046704;28;20576;-57
2022/03/13 17:56:51;;;;;;;4.90;2.40;;;14.80;99.90;;;;;;5046016;28;20064;-59
2022/03/13 17:59:17;;;;;;;6.97;2.85;;;14.80;99.90;;;;;;5039006;28;20111;-59
2022/03/13 18:01:43;;;;;;;4.97;2.10;;;14.80;99.90;;;;;;5040081;28;20044;-59
2022/03/13 18:04:09;;;;;;;3.47;2.13;;;14.70;99.90;;;;;;5044216;28;20025;-60
2022/03/13 18:06:35;;;;;;;5.45;2.10;;;14.80;99.90;;;;;;5047724;28;20031;-60
2022/03/13 18:09:02;;;;;;;3.00;1.98;;;14.70;99.90;;;;;;5048921;28;20029;-58
2022/03/13 18:11:28;;;;;;;5.07;2.20;;;14.70;99.90;;;;;;5045687;28;20028;-60
2022/03/13 18:13:54;;;;;;;7.40;2.90;;;14.70;99.90;;;;;;5040072;28;20100;-60
2022/03/13 18:16:19;;;;;;;4.00;2.60;;;14.70;99.90;;;;;;5043210;28;20755;-59
2022/03/13 18:18:45;;;;;;;3.85;2.83;;;14.70;99.90;;;;;;5036576;28;20033;-58
2022/03/13 18:21:10;;;;;;;4.13;2.42;;;14.70;99.90;;;;;;5039422;28;20460;-59
2022/03/13 18:23:37;;;;;;;3.45;2.40;;;14.60;99.90;;;;;;5036644;28;20040;-58
2022/03/13 18:26:02;;;;;;;4.28;2.55;;;14.60;99.90;;;;;;5039802;28;20037;-57
2022/03/13 18:28:28;;;;;;;5.20;1.88;;;14.70;99.90;;;;;;5040803;28;20100;-57
2022/03/13 18:30:54;;;;;;;5.13;2.50;;;14.60;99.90;;;;;;5041230;28;20035;-57
2022/03/13 18:33:23;;;;;;;4.05;2.25;;;14.60;99.90;;;;;;5041457;28;20063;-58
2022/03/13 18:35:49;;;;;;;3.15;2.25;;;14.60;99.90;;;;;;5038371;28;20017;-59
2022/03/13 18:38:17;;;;;;;9.48;2.88;;;14.50;99.90;;;;;;5038233;28;20573;-59
2022/03/13 18:40:42;;;;;;;4.55;2.33;;;14.50;99.90;;;;;;5041771;28;20037;-58
2022/03/13 18:43:11;;;;;;;2.50;2.00;;;14.50;99.90;;;;;;5041071;28;20029;-59
2022/03/13 18:45:40;;;;;;;4.35;3.08;;;14.40;99.90;;;;;;5040029;28;20056;-58
2022/03/13 18:48:05;;;;;;;5.50;2.53;;;14.40;99.90;;;;;;5041496;28;20025;-58
2022/03/13 18:50:31;;;;;;;4.93;2.53;;;14.40;99.90;;;;;;5043810;28;20025;-58
2022/03/13 18:52:57;;;;;;;4.10;2.55;;;14.30;99.90;;;;;;5045070;28;20037;-59
2022/03/13 18:55:23;;;;;;;5.63;2.88;;;14.30;99.90;;;;;;5044889;28;20036;-59
2022/03/13 18:57:48;;;;;;;4.72;2.75;;;14.30;99.90;;;;;;5045222;28;20617;-58
2022/03/13 19:00:16;;;;;;;4.80;2.50;;;14.30;99.90;;;;;;5042683;28;20109;-58
2022/03/13 19:02:42;;;;;;;5.07;2.67;;;14.30;99.90;;;;;;5040276;28;20027;-57
2022/03/13 19:05:08;;;;;;;3.30;2.20;;;14.20;99.90;;;;;;5039267;28;20036;-61
2022/03/13 19:07:35;;;;;;;7.68;2.85;;;14.20;99.90;;;;;;5042787;28;20398;-58
2022/03/13 19:10:03;;;;;;;4.03;2.38;;;14.20;99.90;;;;;;5037996;28;20029;-61
2022/03/13 19:12:29;;;;;;;4.68;2.50;;;14.10;99.90;;;;;;5044980;28;20016;-58
2022/03/13 19:14:58;;;;;;;4.07;2.55;;;14.20;99.90;;;;;;5043718;28;20411;-57
2022/03/13 19:17:29;;;;;;;4.88;2.65;;;14.10;99.90;;;;;;5047952;28;20018;-57
2022/03/13 19:19:56;;;;;;;3.47;2.47;;;14.10;99.90;;;;;;5048862;28;20029;-59
2022/03/13 19:22:22;;;;;;;10.88;2.80;;;14.00;99.90;;;;;;5037901;28;20578;-55
2022/03/13 19:24:48;;;;;;;4.65;3.10;;;14.00;99.90;;;;;;5045877;28;20040;-61
2022/03/13 19:27:14;;;;;;;4.38;2.83;;;13.90;99.90;;;;;;5047262;28;20120;-58
2022/03/13 19:29:40;;;;;;;6.25;2.50;;;13.90;99.90;;;;;;5043691;28;20554;-58
2022/03/13 19:32:06;;;;;;;4.70;2.60;;;13.80;99.90;;;;;;5042928;28;20037;-60
2022/03/13 19:34:34;;;;;;;3.85;2.88;;;13.80;99.90;;;;;;5042249;28;20503;-60
2022/03/13 19:36:59;;;;;;;5.00;3.10;;;13.70;99.90;;;;;;5044790;28;20757;-59
2022/03/13 19:39:25;;;;;;;4.88;3.50;;;13.70;99.90;;;;;;5042821;28;20092;-59
2022/03/13 19:41:51;;;;;;;6.20;3.28;;;13.70;99.90;;;;;;5037539;28;20148;-60
2022/03/13 19:44:19;;;;;;;4.72;3.13;;;13.60;99.90;;;;;;5042838;28;20434;-58
2022/03/13 19:46:48;;;;;;;6.72;3.05;;;13.60;99.90;;;;;;5037739;28;20710;-58
2022/03/13 19:49:13;;;;;;;3.95;2.70;;;13.50;99.90;;;;;;5048759;28;20029;-61
2022/03/13 19:51:39;;;;;;;4.65;3.13;;;13.50;99.90;;;;;;5038107;28;20043;-58
2022/03/13 19:54:05;;;;;;;5.90;3.05;;;13.40;99.90;;;;;;5037328;28;20024;-60
2022/03/13 19:56:30;;;;;;;3.33;2.20;;;13.30;99.90;;;;;;5040582;28;20033;-60
2022/03/13 19:59:05;;;;;;;3.10;2.28;;;13.30;99.90;;;;;;5038901;28;20074;-57
2022/03/13 20:01:31;;;;;;;;;;;13.20;99.90;;;;;;5038695;28;20101;-57
2022/03/13 20:04:00;;;;;;;2.70;1.95;;;13.20;99.90;;;;;;5041932;28;19912;-59
2022/03/13 20:06:28;;;;;;;3.53;1.83;;;13.20;99.90;;;;;;5046699;28;20017;-58
2022/03/13 20:08:55;;;;;;;2.53;1.85;;;13.10;99.90;;;;;;5047771;28;20115;-60
2022/03/13 20:11:24;;;;;;;2.60;1.70;;;13.00;99.90;;;;;;5047981;28;20021;-61
2022/03/13 20:13:50;;;;;;;1.98;1.70;;;13.00;99.90;;;;;;5042313;28;20031;-56
2022/03/13 20:16:16;;;;;;;3.15;1.88;;;12.90;99.90;;;;;;5044865;28;20040;-59
2022/03/13 20:18:41;;;;;;;3.45;1.83;;;12.90;99.90;;;;;;5046290;28;20028;-60
2022/03/13 20:21:08;;;;;;;3.97;1.45;;;12.90;99.90;;;;;;5042384;28;20033;-58
2022/03/13 20:23:34;;;;;;;2.45;1.42;;;12.90;99.90;;;;;;5044689;28;20086;-60
2022/03/13 20:26:00;;;;;;;2.50;1.48;;;12.90;99.90;;;;;;5042604;28;20132;-59
2022/03/13 20:28:26;;;;;;;3.50;2.30;;;12.80;99.90;;;;;;5041121;28;20108;-59
2022/03/13 20:30:52;;;;;;;2.22;1.63;;;12.80;99.90;;;;;;5041861;28;20095;-59
2022/03/13 20:33:17;;;;;;;2.92;1.60;;;12.70;99.90;;;;;;5043338;28;20025;-59
2022/03/13 20:35:43;;;;;;;2.55;1.90;;;12.70;99.90;;;;;;5044553;28;20035;-57
2022/03/13 20:38:09;;;;;;;2.15;1.67;;;12.70;99.90;;;;;;5034851;28;20462;-61
2022/03/13 20:40:38;;;;;;;2.80;1.80;;;12.70;99.90;;;;;;5046862;28;20115;-60
2022/03/13 20:43:05;;;;;;;4.38;1.83;;;12.70;99.90;;;;;;5044221;28;20025;-58
2022/03/13 20:45:31;;;;;;;3.58;1.73;;;12.70;99.90;;;;;;5048103;28;20033;-60
2022/03/13 20:47:57;;;;;;;3.35;1.98;;;12.60;99.90;;;;;;5047185;28;20126;-63
2022/03/13 20:50:23;;;;;;;4.47;1.85;;;12.60;99.90;;;;;;5046021;28;20052;-61
2022/03/13 20:52:50;;;;;;;3.08;1.60;;;12.50;99.90;;;;;;5050924;28;20059;-60
2022/03/13 20:55:17;;;;;;;2.65;1.50;;;12.40;99.90;;;;;;5043336;28;20455;-59
2022/03/13 20:57:42;;;;;;;2.15;1.65;;;12.40;99.90;;;;;;5044385;28;20277;-60
2022/03/13 21:00:11;;;;;;;2.95;1.80;;;12.40;99.90;;;;;;5040853;28;20025;-62
2022/03/13 21:02:37;;;;;;;2.05;1.58;;;12.40;99.90;;;;;;5043938;28;20025;-60
2022/03/13 21:05:04;;;;;;;4.22;1.45;;;12.40;99.90;;;;;;5042436;28;20438;-61
2022/03/13 21:07:30;;;;;;;2.65;1.70;;;12.50;99.90;;;;;;5043324;28;20021;-60
2022/03/13 21:09:55;;;;;;;2.83;1.58;;;12.40;99.90;;;;;;5041551;28;20100;-61
2022/03/13 21:12:22;;;;;;;2.83;1.70;;;12.40;99.90;;;;;;5044681;28;20457;-62
2022/03/13 21:14:48;;;;;;;2.83;1.90;;;12.40;99.90;;;;;;5040097;28;20017;-60
2022/03/13 21:17:14;;;;;;;1.88;1.58;;;12.30;99.90;;;;;;5042229;28;20052;-61
2022/03/13 21:19:39;;;;;;;2.13;1.77;;;12.10;99.90;;;;;;5036893;28;20514;-61
2022/03/13 21:22:05;;;;;;;3.08;1.67;;;12.10;99.90;;;;;;5038358;28;20039;-60
2022/03/13 21:24:30;;;;;;;4.70;1.70;;;12.10;99.90;;;;;;5039820;28;20104;-61
2022/03/13 21:26:57;;;;;;;3.15;1.77;;;12.10;99.90;;;;;;5043502;28;20064;-57
2022/03/13 21:29:25;;;;;;;2.47;2.05;;;12.10;99.90;;;;;;5039888;28;20085;-61
2022/03/13 21:31:51;;;;;;;4.13;1.73;;;12.10;99.90;;;;;;5041316;28;20104;-59
2022/03/13 21:34:17;;;;;;;2.03;1.60;;;12.10;99.90;;;;;;5035255;28;20460;-60
2022/03/13 21:36:44;;;;;;;2.45;1.55;;;12.10;99.90;;;;;;5038272;28;20391;-58
2022/03/13 21:39:11;;;;;;;2.22;1.90;;;12.10;99.90;;;;;;5042988;28;20108;-59
2022/03/13 21:41:37;;;;;;;2.00;1.50;;;12.00;99.90;;;;;;5039676;28;20160;-60
2022/03/13 21:44:04;;;;;;;2.80;1.80;;;12.00;99.90;;;;;;5042238;28;20116;-60
2022/03/13 21:46:30;;;;;;;2.28;1.80;;;12.00;99.90;;;;;;5037472;28;20025;-60
2022/03/13 21:48:55;;;;;;;2.10;1.38;;;11.90;99.90;;;;;;5040725;28;20040;-61
2022/03/13 21:51:21;;;;;;;3.55;2.03;;;11.90;99.90;;;;;;5033784;28;20024;-60
2022/03/13 21:53:47;;;;;;;3.30;2.08;;;11.90;99.90;;;;;;5036392;28;20033;-60
2022/03/13 21:56:13;;;;;;;3.72;2.15;;;11.90;99.90;;;;;;5071446;22;20045;-60
2022/03/13 21:58:40;;;;;;;1.90;1.50;;;11.90;99.90;;;;;;5052782;28;20170;-62
2022/03/13 22:01:05;;;;;;;4.10;1.98;;;11.90;99.90;;;;;;5064653;28;20115;-60
2022/03/13 22:03:31;;;;;;;2.78;1.95;;;11.80;99.90;;;;;;5060836;28;20091;-61
2022/03/13 22:05:57;;;;;;;2.28;1.75;;;11.80;99.90;;;;;;5063655;28;20473;-60
2022/03/13 22:08:22;;;;;;;2.83;1.90;;;11.70;99.90;;;;;;5049602;28;20029;-61
2022/03/13 22:10:49;;;;;;;4.65;1.65;;;11.70;99.90;;;;;;5062436;28;20070;-60
2022/03/13 22:13:17;;;;;;;3.28;2.00;;;11.60;99.90;;;;;;5049823;28;20039;-62
2022/03/13 22:15:45;;;;;;;2.63;1.70;;;11.60;99.90;;;;;;5049370;28;20152;-62
2022/03/13 22:18:11;;;;;;;2.42;1.80;;;11.60;99.90;;;;;;5050348;28;20041;-60
2022/03/13 22:20:38;;;;;;;4.47;2.20;;;11.60;99.90;;;;;;5049285;28;20039;-61
2022/03/13 22:23:06;;;;;;;3.63;1.90;;;11.60;99.90;;;;;;5049756;28;20037;-60
2022/03/13 22:25:33;;;;;;;3.95;1.85;;;11.50;99.90;;;;;;5048843;28;20124;-61
2022/03/13 22:27:58;;;;;;;2.53;1.83;;;11.40;99.90;;;;;;5049433;28;20409;-60
2022/03/13 22:30:24;;;;;;;2.70;1.75;;;11.40;99.90;;;;;;5049352;28;20029;-61
2022/03/13 22:32:51;;;;;;;3.17;1.98;;;11.20;99.90;;;;;;5049283;28;20068;-61
2022/03/13 22:35:18;;;;;;;3.38;2.08;;;11.30;99.90;;;;;;5048985;28;20029;-62
2022/03/13 22:37:43;;;;;;;3.15;2.00;;;11.20;99.90;;;;;;5049265;28;20036;-61
2022/03/13 22:40:10;;;;;;;4.13;1.90;;;11.20;99.90;;;;;;5049823;28;20021;-61
2022/03/13 22:42:37;;;;;;;5.53;1.98;;;11.10;99.90;;;;;;5049546;28;20029;-60
2022/03/13 22:45:04;;;;;;;3.72;2.05;;;11.10;99.90;;;;;;5047543;28;20018;-59
2022/03/13 22:47:39;;;;;;;4.28;2.38;;;10.90;99.90;;;;;;5051140;28;20104;-61
2022/03/13 22:50:15;;;;;;;4.45;2.03;;;10.80;99.90;;;;;;5053573;28;20074;-61
2022/03/13 22:52:44;;;;;;;5.57;2.50;;;10.80;99.90;;;;;;5050789;28;20025;-60
2022/03/13 22:55:12;;;;;;;3.85;2.72;;;10.70;99.90;;;;;;5056163;28;20025;-60
2022/03/13 22:57:40;;;;;;;8.48;2.55;;;10.70;99.90;;;;;;5052676;28;20490;-59
2022/03/13 23:00:12;;;;;;;5.78;2.95;;;10.70;99.90;;;;;;5053210;28;20029;-61
2022/03/13 23:02:38;;;;;;;3.67;2.13;;;10.80;99.90;;;;;;5053943;28;20031;-59
2022/03/13 23:05:04;;;;;;;7.00;3.00;;;10.90;99.90;;;;;;5053128;28;20629;-61
2022/03/13 23:07:29;;;;;;;3.20;2.55;;;10.80;99.90;;;;;;5059084;28;20021;-61
2022/03/13 23:09:56;;;;;;;3.90;2.65;;;10.80;99.90;;;;;;5053197;28;20028;-61
2022/03/13 23:12:23;;;;;;;6.20;2.70;;;10.90;99.90;;;;;;5051689;28;20029;-61
2022/03/13 23:14:52;;;;;;;6.13;2.67;;;10.80;99.90;;;;;;5059485;28;20081;-61
2022/03/13 23:17:18;;;;;;;4.13;2.60;;;10.70;99.90;;;;;;5052941;28;20033;-61
2022/03/13 23:19:44;;;;;;;6.00;3.20;;;10.70;99.90;;;;;;5069558;28;20033;-61
2022/03/13 23:22:11;;;;;;;9.38;3.33;;;10.80;99.90;;;;;;5056620;28;20037;-61
2022/03/13 23:24:37;;;;;;;5.03;2.83;;;10.80;99.90;;;;;;5064684;28;20138;-62
2022/03/13 23:27:04;;;;;;;5.35;3.15;;;10.80;99.90;;;;;;5052283;28;20411;-62
2022/03/13 23:29:32;;;;;;;4.78;2.88;;;10.80;99.90;;;;;;5056288;28;20021;-60
2022/03/13 23:31:59;;;;;;;3.67;2.33;;;10.90;99.90;;;;;;5059241;28;20017;-62
2022/03/13 23:34:30;;;;;;;4.65;2.53;;;10.80;99.90;;;;;;5054093;28;20021;-61
2022/03/13 23:36:58;;;;;;;6.55;2.95;;;10.70;99.90;;;;;;5057505;28;20116;-61
2022/03/13 23:39:25;;;;;;;6.78;3.33;;;10.70;99.90;;;;;;5055054;28;20025;-61
2022/03/13 23:41:52;;;;;;;4.07;2.65;;;10.60;99.90;;;;;;5055994;28;20053;-61
2022/03/13 23:44:18;;;;;;;4.80;2.70;;;10.60;99.90;;;;;;5054187;28;20036;-60
2022/03/13 23:46:44;;;;;;;3.72;2.22;;;10.50;99.90;;;;;;5054321;28;20029;-58
2022/03/13 23:49:10;;;;;;;4.22;2.30;;;10.40;99.90;;;;;;5057315;28;20082;-61
2022/03/13 23:51:38;;;;;;;6.25;2.95;;;10.40;99.90;;;;;;5053764;28;20047;-63
2022/03/13 23:54:03;;;;;;;4.45;2.60;;;10.30;99.90;;;;;;5056594;28;20033;-62
2022/03/13 23:56:29;;;;;;;4.53;2.65;;;10.30;99.90;;;;;;5058724;28;20032;-61
2022/03/13 23:58:55;;;;;;;4.18;2.72;;;10.20;99.90;;;;;;5063341;28;20033;-61
